Wetterdaten: Woche 25.05.09 - 31.05.09 (KW22)
Datum Zeit Temp. A. Feuchte A. Luftdruck Regen Wind Richtung Taupunkt Windchill Windben
25.05.2009 00:00 19,6 C 78 % 1016,7 hPa 0,0 l/m 0,0 km/h N 15,7 C 19,6 C 1,6 km/h
25.05.2009 01:00 18,9 C 80 % 1016,4 hPa 0,0 l/m 0,0 km/h N 15,3 C 18,9 C 0,8 km/h
25.05.2009 02:00 17,4 C 86 % 1016,3 hPa 0,0 l/m 0,0 km/h N 14,9 C 17,4 C 0,8 km/h
25.05.2009 03:00 17,2 C 85 % 1016,5 hPa 0,0 l/m 0,0 km/h N 14,6 C 17,2 C 0,4 km/h
25.05.2009 04:00 15,7 C 89 % 1016,9 hPa 0,0 l/m 0,0 km/h N 13,9 C 15,7 C 0,4 km/h
25.05.2009 05:00 15,3 C 90 % 1017,2 hPa 0,0 l/m 0,0 km/h N 13,6 C 15,3 C 0,0 km/h
25.05.2009 06:00 17,7 C 84 % 1017,6 hPa 0,0 l/m 0,0 km/h N 14,9 C 17,7 C 0,0 km/h
25.05.2009 07:00 19,1 C 80 % 1018,0 hPa 0,0 l/m 0,1 km/h N 15,6 C 19,1 C 2,0 km/h
25.05.2009 08:00 21,3 C 64 % 1018,3 hPa 0,0 l/m 1,9 km/h NW 14,1 C 21,3 C 5,6 km/h
25.05.2009 09:00 22,0 C 60 % 1018,5 hPa 0,0 l/m 2,8 km/h W 13,9 C 22,0 C 8,0 km/h
25.05.2009 10:00 23,7 C 57 % 1018,5 hPa 0,0 l/m 2,0 km/h NW 14,6 C 23,7 C 7,6 km/h
25.05.2009 11:00 25,3 C 50 % 1018,2 hPa 0,0 l/m 2,4 km/h N 14,2 C 25,3 C 7,2 km/h
25.05.2009 12:00 26,4 C 47 % 1017,7 hPa 0,0 l/m 3,1 km/h W-NW 14,1 C 26,4 C 8,4 km/h
25.05.2009 13:00 27,3 C 47 % 1017,4 hPa 0,0 l/m 4,3 km/h NW 14,8 C 27,3 C 14,1 km/h
25.05.2009 14:00 28,0 C 46 % 1016,8 hPa 0,0 l/m 4,0 km/h N-NW 15,1 C 28,0 C 10,9 km/h
25.05.2009 15:00 27,8 C 46 % 1016,5 hPa 0,0 l/m 5,4 km/h NO 15,1 C 27,8 C 11,7 km/h
25.05.2009 16:00 27,9 C 47 % 1016,1 hPa 0,0 l/m 5,6 km/h N-NW 15,4 C 27,9 C 14,1 km/h
25.05.2009 17:00 27,6 C 47 % 1015,7 hPa 0,0 l/m 3,8 km/h N 15,4 C 27,6 C 9,3 km/h
25.05.2009 18:00 27,2 C 50 % 1015,1 hPa 0,0 l/m 1,8 km/h N-NW 15,7 C 27,2 C 5,6 km/h
25.05.2009 19:00 26,1 C 52 % 1014,9 hPa 0,0 l/m 0,2 km/h N 15,5 C 26,1 C 2,8 km/h
25.05.2009 20:00 24,4 C 57 % 1015,3 hPa 0,0 l/m 0,0 km/h N 15,2 C 24,4 C 0,8 km/h
25.05.2009 21:00 20,8 C 71 % 1016,2 hPa 0,0 l/m 0,0 km/h N 15,2 C 20,8 C 0,4 km/h
25.05.2009 22:00 19,0 C 77 % 1016,3 hPa 0,0 l/m 0,0 km/h N 14,9 C 19,0 C 0,0 km/h
25.05.2009 23:00 18,2 C 80 % 1016,4 hPa 0,0 l/m 0,1 km/h N 14,6 C 18,2 C 1,2 km/h
26.05.2009 00:00 17,0 C 83 % 1016,2 hPa 0,0 l/m 0,0 km/h N 14,0 C 17,0 C 0,0 km/h
26.05.2009 01:00 16,3 C 83 % 1015,9 hPa 0,0 l/m 0,0 km/h N 13,4 C 16,3 C 0,8 km/h
26.05.2009 02:00 15,5 C 85 % 1015,6 hPa 0,0 l/m 0,0 km/h N 12,9 C 15,5 C 0,4 km/h
26.05.2009 03:00 14,6 C 87 % 1015,6 hPa 0,0 l/m 0,0 km/h N 12,5 C 14,6 C 0,0 km/h
26.05.2009 04:00 13,8 C 89 % 1015,5 hPa 0,0 l/m 0,0 km/h N 12,0 C 13,8 C 0,0 km/h
26.05.2009 05:00 13,6 C 90 % 1015,5 hPa 0,0 l/m 0,0 km/h N 11,9 C 13,6 C 0,0 km/h
26.05.2009 06:00 14,9 C 87 % 1015,3 hPa 0,0 l/m 0,0 km/h N 12,8 C 14,9 C 0,0 km/h
26.05.2009 07:00 17,7 C 69 % 1015,2 hPa 0,0 l/m 0,0 km/h N 11,9 C 17,7 C 1,2 km/h
26.05.2009 08:00 19,4 C 65 % 1015,0 hPa 0,0 l/m 0,6 km/h O-SO 12,6 C 19,4 C 3,2 km/h
26.05.2009 09:00 21,0 C 61 % 1014,6 hPa 0,0 l/m 2,5 km/h O 13,3 C 21,0 C 6,4 km/h
26.05.2009 10:00 22,9 C 58 % 1014,3 hPa 0,0 l/m 3,4 km/h O 14,0 C 22,9 C 9,3 km/h
26.05.2009 11:00 25,0 C 50 % 1013,7 hPa 0,0 l/m 3,1 km/h O-NO 13,9 C 25,0 C 10,4 km/h
26.05.2009 12:00 26,1 C 49 % 1013,2 hPa 0,0 l/m 3,7 km/h O 14,3 C 26,1 C 10,1 km/h
26.05.2009 13:00 27,2 C 48 % 1012,5 hPa 0,0 l/m 3,0 km/h NO 15,1 C 27,2 C 11,7 km/h
26.05.2009 14:00 27,7 C 48 % 1011,8 hPa 0,0 l/m 3,5 km/h O 15,7 C 27,7 C 9,3 km/h
26.05.2009 15:00 28,7 C 48 % 1011,2 hPa 0,0 l/m 3,0 km/h O-NO 16,5 C 28,7 C 10,5 km/h
26.05.2009 16:00 28,9 C 48 % 1010,7 hPa 0,0 l/m 2,5 km/h N-NO 16,7 C 28,9 C 11,3 km/h
26.05.2009 17:00 27,6 C 51 % 1009,8 hPa 0,0 l/m 2,1 km/h O-SO 16,4 C 27,6 C 8,9 km/h
26.05.2009 18:00 26,3 C 54 % 1009,5 hPa 0,0 l/m 0,9 km/h O 16,2 C 26,3 C 4,4 km/h
26.05.2009 19:00 25,6 C 56 % 1009,3 hPa 0,0 l/m 1,0 km/h O-NO 16,1 C 25,6 C 5,2 km/h
26.05.2009 20:00 24,6 C 61 % 1009,0 hPa 0,0 l/m 0,3 km/h N 16,6 C 24,6 C 2,8 km/h
26.05.2009 21:00 24,3 C 62 % 1008,6 hPa 0,0 l/m 0,6 km/h S-SW 16,4 C 24,3 C 6,8 km/h
26.05.2009 22:00 23,8 C 63 % 1009,4 hPa 0,0 l/m 1,5 km/h SW 16,3 C 23,8 C 6,8 km/h
26.05.2009 23:00 22,1 C 59 % 1011,1 hPa 0,0 l/m 4,9 km/h W-SW 13,6 C 22,0 C 22,1 km/h
27.05.2009 00:00 19,8 C 62 % 1012,3 hPa 0,0 l/m 10,6 km/h SW 12,2 C 18,2 C 37,8 km/h
27.05.2009 01:00 19,2 C 65 % 1012,6 hPa 0,0 l/m 7,8 km/h SW 12,4 C 18,6 C 24,5 km/h
27.05.2009 02:00 18,5 C 67 % 1013,1 hPa 0,0 l/m 3,6 km/h N-NO 12,2 C 18,5 C 16,5 km/h
27.05.2009 03:00 17,9 C 69 % 1013,7 hPa 0,0 l/m 6,6 km/h W-NW 12,0 C 17,8 C 24,5 km/h
27.05.2009 04:00 17,7 C 71 % 1014,2 hPa 0,0 l/m 6,0 km/h W-SW 12,3 C 17,7 C 22,9 km/h
27.05.2009 05:00 17,5 C 71 % 1015,0 hPa 0,0 l/m 7,4 km/h NW 12,2 C 17,0 C 24,5 km/h
27.05.2009 06:00 17,6 C 70 % 1016,2 hPa 0,0 l/m 6,1 km/h W-NW 12,0 C 17,4 C 24,6 km/h
27.05.2009 07:00 17,6 C 69 % 1017,0 hPa 0,0 l/m 5,0 km/h W-NW 11,8 C 17,6 C 22,5 km/h
27.05.2009 08:00 18,1 C 68 % 1017,2 hPa 0,0 l/m 4,3 km/h NW 12,1 C 18,1 C 16,9 km/h
27.05.2009 09:00 18,0 C 69 % 1017,8 hPa 0,0 l/m 5,0 km/h S 12,2 C 17,9 C 18,1 km/h
27.05.2009 10:00 19,2 C 65 % 1018,7 hPa 0,0 l/m 6,3 km/h NW 12,5 C 18,9 C 22,5 km/h
27.05.2009 11:00 16,7 C 73 % 1021,3 hPa 0,0 l/m 10,3 km/h N-NW 11,7 C 14,9 C 29,0 km/h
27.05.2009 12:00 17,1 C 70 % 1022,2 hPa 0,0 l/m 11,9 km/h N-NW 11,6 C 14,7 C 25,4 km/h
27.05.2009 13:00 17,4 C 66 % 1022,3 hPa 0,0 l/m 11,8 km/h NW 11,0 C 15,1 C 26,5 km/h
27.05.2009 14:00 17,8 C 61 % 1022,5 hPa 0,0 l/m 9,1 km/h NW 10,1 C 16,6 C 22,9 km/h
27.05.2009 15:00 18,4 C 61 % 1022,4 hPa 0,0 l/m 5,6 km/h NW 10,7 C 18,2 C 17,7 km/h
27.05.2009 16:00 18,4 C 60 % 1022,7 hPa 0,0 l/m 5,3 km/h N-NO 10,4 C 18,3 C 16,9 km/h
27.05.2009 17:00 17,5 C 53 % 1023,1 hPa 0,0 l/m 5,6 km/h NW 7,8 C 17,5 C 16,9 km/h
27.05.2009 18:00 16,8 C 54 % 1023,3 hPa 0,0 l/m 5,6 km/h NW 7,4 C 16,8 C 15,7 km/h
27.05.2009 19:00 16,2 C 58 % 1023,5 hPa 0,0 l/m 4,0 km/h N-NW 7,8 C 16,2 C 15,7 km/h
27.05.2009 20:00 15,3 C 61 % 1024,0 hPa 0,0 l/m 2,1 km/h NW 7,7 C 15,3 C 7,6 km/h
27.05.2009 21:00 14,9 C 63 % 1024,6 hPa 0,0 l/m 2,2 km/h N-NW 7,9 C 14,9 C 7,6 km/h
27.05.2009 22:00 14,5 C 62 % 1024,8 hPa 0,0 l/m 2,7 km/h NW 7,3 C 14,5 C 8,0 km/h
27.05.2009 23:00 13,6 C 63 % 1025,1 hPa 0,0 l/m 1,1 km/h NW 6,7 C 13,6 C 5,6 km/h
28.05.2009 00:00 12,9 C 66 % 1025,0 hPa 0,0 l/m 1,1 km/h NW 6,7 C 12,9 C 6,0 km/h
28.05.2009 01:00 12,8 C 65 % 1024,9 hPa 0,0 l/m 1,1 km/h W-NW 6,4 C 12,8 C 4,8 km/h
28.05.2009 02:00 12,7 C 66 % 1024,9 hPa 0,0 l/m 1,2 km/h NW 6,5 C 12,7 C 5,2 km/h
28.05.2009 03:00 12,7 C 65 % 1024,6 hPa 0,0 l/m 1,4 km/h S-SO 6,2 C 12,7 C 5,6 km/h
28.05.2009 04:00 12,2 C 67 % 1024,3 hPa 0,0 l/m 1,8 km/h NW 6,1 C 12,2 C 5,6 km/h
28.05.2009 05:00 11,7 C 68 % 1024,7 hPa 0,0 l/m 1,7 km/h NW 6,0 C 11,7 C 4,8 km/h
28.05.2009 06:00 12,9 C 61 % 1024,8 hPa 0,0 l/m 2,0 km/h NO 5,5 C 12,9 C 6,8 km/h
28.05.2009 07:00 14,1 C 56 % 1024,8 hPa 0,0 l/m 2,9 km/h NW 5,4 C 14,1 C 11,3 km/h
28.05.2009 08:00 15,1 C 55 % 1024,9 hPa 0,0 l/m 5,0 km/h NW 6,1 C 14,9 C 14,9 km/h
28.05.2009 09:00 16,3 C 52 % 1024,6 hPa 0,0 l/m 6,7 km/h NW 6,4 C 15,8 C 18,1 km/h
28.05.2009 10:00 17,9 C 47 % 1024,0 hPa 0,0 l/m 4,4 km/h NW 6,5 C 17,9 C 14,9 km/h
28.05.2009 11:00 18,7 C 46 % 1023,5 hPa 0,0 l/m 5,4 km/h NW 6,7 C 18,5 C 19,3 km/h
28.05.2009 12:00 18,1 C 49 % 1023,4 hPa 0,0 l/m 6,1 km/h SW 7,3 C 18,0 C 25,0 km/h
28.05.2009 13:00 18,9 C 46 % 1023,0 hPa 0,0 l/m 10,0 km/h W 6,9 C 17,5 C 34,2 km/h
28.05.2009 14:00 19,8 C 45 % 1022,3 hPa 0,0 l/m 9,7 km/h W 7,6 C 18,5 C 29,4 km/h
28.05.2009 15:00 19,3 C 48 % 1022,1 hPa 0,0 l/m 11,3 km/h SW 8,0 C 17,4 C 31,4 km/h
28.05.2009 16:00 18,7 C 50 % 1022,1 hPa 0,0 l/m 10,4 km/h W-NW 8,0 C 17,0 C 33,0 km/h
28.05.2009 17:00 17,8 C 53 % 1021,9 hPa 0,0 l/m 7,2 km/h O-NO 7,9 C 17,3 C 26,6 km/h
28.05.2009 18:00 17,4 C 56 % 1021,4 hPa 0,0 l/m 6,4 km/h W-SW 8,6 C 17,3 C 25,8 km/h
28.05.2009 19:00 16,5 C 59 % 1020,9 hPa 0,0 l/m 6,1 km/h S-SW 8,6 C 16,5 C 25,3 km/h
28.05.2009 20:00 16,1 C 63 % 1020,7 hPa 0,0 l/m 6,1 km/h NO 9,1 C 16,0 C 23,3 km/h
28.05.2009 21:00 12,6 C 80 % 1022,5 hPa 0,3 l/m 8,1 km/h NW 9,1 C 11,6 C 21,3 km/h
28.05.2009 22:00 10,5 C 88 % 1023,2 hPa 0,0 l/m 3,2 km/h SO 8,6 C 10,5 C 10,9 km/h
28.05.2009 23:00 10,5 C 86 % 1023,1 hPa 0,0 l/m 1,7 km/h NW 8,3 C 10,5 C 6,8 km/h
29.05.2009 00:00 10,6 C 87 % 1023,7 hPa 0,0 l/m 0,5 km/h N 8,6 C 10,6 C 3,2 km/h
29.05.2009 01:00 9,5 C 89 % 1024,2 hPa 6,3 l/m 1,6 km/h W-SW 7,7 C 9,5 C 9,7 km/h
29.05.2009 02:00 8,0 C 89 % 1024,2 hPa 0,0 l/m 0,3 km/h W 6,2 C 8,0 C 3,6 km/h
29.05.2009 03:00 8,1 C 87 % 1024,2 hPa 3,6 l/m 1,8 km/h N-NW 6,2 C 8,1 C 6,0 km/h
29.05.2009 04:00 7,8 C 88 % 1024,1 hPa 1,2 l/m 0,8 km/h N 5,8 C 7,8 C 4,0 km/h
29.05.2009 05:00 8,5 C 88 % 1023,8 hPa 0,0 l/m 1,5 km/h NW 6,6 C 8,5 C 6,4 km/h
29.05.2009 06:00 9,1 C 83 % 1023,8 hPa 0,0 l/m 2,8 km/h NW 6,3 C 9,1 C 8,4 km/h
29.05.2009 07:00 10,3 C 74 % 1023,3 hPa 0,0 l/m 4,7 km/h NW 5,9 C 10,3 C 13,7 km/h
29.05.2009 08:00 10,8 C 72 % 1023,1 hPa 0,0 l/m 11,7 km/h NW 6,0 C 7,6 C 24,1 km/h
29.05.2009 09:00 12,4 C 59 % 1022,5 hPa 0,0 l/m 10,4 km/h N-NW 4,6 C 10,1 C 26,9 km/h
29.05.2009 10:00 13,5 C 52 % 1021,7 hPa 0,0 l/m 11,7 km/h W 3,9 C 10,8 C 29,5 km/h
29.05.2009 11:00 14,3 C 52 % 1021,3 hPa 0,0 l/m 11,3 km/h NW 4,4 C 11,7 C 34,6 km/h
29.05.2009 12:00 11,7 C 64 % 1022,2 hPa 2,1 l/m 8,0 km/h SW 4,8 C 10,6 C 30,6 km/h
29.05.2009 13:00 9,4 C 84 % 1022,2 hPa 3,0 l/m 3,2 km/h W-SW 6,8 C 9,4 C 24,1 km/h
29.05.2009 14:00 11,4 C 76 % 1021,8 hPa 0,0 l/m 4,0 km/h NW 7,3 C 11,4 C 16,9 km/h
29.05.2009 15:00 11,3 C 80 % 1021,3 hPa 0,9 l/m 3,2 km/h NW 7,9 C 11,3 C 20,1 km/h
29.05.2009 16:00 12,2 C 75 % 1020,8 hPa 1,5 l/m 4,2 km/h NW 7,9 C 12,2 C 16,6 km/h
29.05.2009 17:00 12,0 C 72 % 1020,8 hPa 0,3 l/m 6,2 km/h N-NW 7,1 C 11,5 C 17,3 km/h
29.05.2009 18:00 10,1 C 78 % 1021,3 hPa 0,6 l/m 5,4 km/h NW 6,4 C 9,8 C 18,1 km/h
29.05.2009 19:00 9,5 C 79 % 1022,0 hPa 0,3 l/m 4,5 km/h N-NW 6,0 C 9,4 C 11,7 km/h
29.05.2009 20:00 9,6 C 80 % 1022,6 hPa 0,0 l/m 2,3 km/h NW 6,2 C 9,6 C 7,6 km/h
29.05.2009 21:00 8,3 C 84 % 1023,0 hPa 1,3 l/m 1,6 km/h NW 5,8 C 8,3 C 8,1 km/h
29.05.2009 22:00 8,4 C 87 % 1023,0 hPa 0,6 l/m 1,5 km/h W-NW 6,3 C 8,4 C 8,4 km/h
29.05.2009 23:00 8,3 C 85 % 1022,9 hPa 0,0 l/m 3,4 km/h NW 5,9 C 8,3 C 10,5 km/h
30.05.2009 00:00 8,3 C 84 % 1023,1 hPa 0,0 l/m 3,4 km/h S 5,7 C 8,3 C 10,1 km/h
30.05.2009 01:00 8,4 C 83 % 1022,9 hPa 0,0 l/m 3,1 km/h NW 5,7 C 8,4 C 9,3 km/h
30.05.2009 02:00 8,4 C 84 % 1022,7 hPa 0,6 l/m 2,3 km/h NW 5,8 C 8,4 C 7,6 km/h
30.05.2009 03:00 8,0 C 87 % 1022,2 hPa 0,6 l/m 1,2 km/h SO 5,9 C 8,0 C 6,8 km/h
30.05.2009 04:00 7,8 C 88 % 1021,7 hPa 1,3 l/m 1,0 km/h W-NW 5,9 C 7,8 C 5,6 km/h
30.05.2009 05:00 7,8 C 89 % 1021,4 hPa 2,2 l/m 0,9 km/h NW 6,1 C 7,8 C 5,6 km/h
30.05.2009 06:00 7,5 C 89 % 1020,9 hPa 3,8 l/m 1,1 km/h S-SO 5,8 C 7,5 C 8,4 km/h
30.05.2009 07:00 7,4 C 90 % 1020,4 hPa 4,2 l/m 1,0 km/h SW 5,8 C 7,4 C 5,7 km/h
30.05.2009 08:00 7,5 C 91 % 1020,3 hPa 3,2 l/m 0,2 km/h N 6,1 C 7,5 C 4,4 km/h
30.05.2009 09:00 6,9 C 92 % 1020,2 hPa 3,5 l/m 0,5 km/h S-SW 5,7 C 6,9 C 5,2 km/h
30.05.2009 10:00 7,3 C 92 % 1020,5 hPa 2,2 l/m 0,8 km/h S 6,0 C 7,3 C 8,4 km/h
30.05.2009 11:00 7,7 C 92 % 1020,7 hPa 2,6 l/m 0,5 km/h N 6,5 C 7,7 C 4,0 km/h
30.05.2009 12:00 7,9 C 92 % 1021,0 hPa 1,0 l/m 0,1 km/h N 6,7 C 7,9 C 2,0 km/h
30.05.2009 13:00 8,6 C 88 % 1021,2 hPa 0,0 l/m 0,5 km/h N 6,7 C 8,6 C 5,6 km/h
30.05.2009 14:00 9,0 C 84 % 1021,2 hPa 0,0 l/m 0,1 km/h N 6,5 C 9,0 C 2,4 km/h
30.05.2009 15:00 10,2 C 79 % 1021,0 hPa 0,0 l/m 0,4 km/h N 6,7 C 10,2 C 4,8 km/h
30.05.2009 16:00 10,6 C 76 % 1021,0 hPa 0,0 l/m 0,6 km/h S-SW 6,5 C 10,6 C 4,4 km/h
30.05.2009 17:00 11,5 C 73 % 1021,0 hPa 0,0 l/m 0,9 km/h S 6,8 C 11,5 C 5,6 km/h
30.05.2009 18:00 11,4 C 75 % 1021,0 hPa 0,0 l/m 1,1 km/h S 7,0 C 11,4 C 5,6 km/h
30.05.2009 19:00 11,3 C 75 % 1021,4 hPa 0,0 l/m 1,1 km/h N-NW 6,9 C 11,3 C 4,0 km/h
30.05.2009 20:00 10,1 C 80 % 1021,8 hPa 0,0 l/m 0,4 km/h N 6,7 C 10,1 C 3,2 km/h
30.05.2009 21:00 8,6 C 85 % 1022,3 hPa 0,0 l/m 0,2 km/h N 6,2 C 8,6 C 2,0 km/h
30.05.2009 22:00 8,2 C 87 % 1022,5 hPa 0,0 l/m 0,2 km/h N 6,2 C 8,2 C 3,2 km/h
30.05.2009 23:00 8,4 C 84 % 1022,5 hPa 0,0 l/m 0,3 km/h N 5,9 C 8,4 C 3,2 km/h
31.05.2009 00:00 7,3 C 87 % 1022,8 hPa 0,0 l/m 0,1 km/h N 5,4 C 7,3 C 2,4 km/h
31.05.2009 01:00 7,5 C 85 % 1022,8 hPa 0,0 l/m 0,6 km/h S-SW 5,2 C 7,5 C 6,8 km/h
31.05.2009 02:00 7,4 C 84 % 1022,7 hPa 0,0 l/m 1,4 km/h SW 4,9 C 7,4 C 8,0 km/h
31.05.2009 03:00 7,3 C 85 % 1021,9 hPa 0,0 l/m 0,6 km/h N 4,9 C 7,3 C 6,4 km/h
31.05.2009 04:00 6,9 C 86 % 1021,6 hPa 0,0 l/m 1,6 km/h SW 4,6 C 6,9 C 9,7 km/h
31.05.2009 05:00 6,5 C 86 % 1021,8 hPa 0,0 l/m 2,1 km/h SW 4,3 C 6,5 C 9,7 km/h
31.05.2009 06:00 7,1 C 84 % 1021,9 hPa 0,0 l/m 0,9 km/h S 4,6 C 7,1 C 8,0 km/h
31.05.2009 07:00 8,5 C 81 % 1021,9 hPa 0,0 l/m 1,3 km/h S-SW 5,4 C 8,5 C 8,5 km/h
31.05.2009 08:00 11,3 C 74 % 1021,7 hPa 0,0 l/m 2,8 km/h NW 6,8 C 11,3 C 9,3 km/h
31.05.2009 09:00 12,7 C 72 % 1021,5 hPa 0,0 l/m 4,6 km/h NW 7,8 C 12,7 C 12,1 km/h
31.05.2009 10:00 13,9 C 68 % 1021,3 hPa 0,0 l/m 5,9 km/h NW 8,0 C 13,8 C 16,5 km/h
31.05.2009 11:00 14,9 C 62 % 1020,7 hPa 0,0 l/m 6,0 km/h N-NW 7,5 C 14,7 C 16,1 km/h
31.05.2009 12:00 15,6 C 62 % 1020,3 hPa 0,0 l/m 6,9 km/h NW 8,3 C 15,3 C 16,5 km/h
31.05.2009 13:00 15,8 C 62 % 1019,9 hPa 0,0 l/m 6,3 km/h N-NW 8,5 C 15,6 C 16,1 km/h
31.05.2009 14:00 15,8 C 60 % 1019,5 hPa 0,0 l/m 6,2 km/h N-NW 8,1 C 15,6 C 17,7 km/h
31.05.2009 15:00 15,7 C 62 % 1019,4 hPa 0,0 l/m 8,7 km/h NW 8,4 C 14,5 C 21,7 km/h
31.05.2009 16:00 15,7 C 62 % 1018,9 hPa 0,0 l/m 7,9 km/h N-NW 8,3 C 14,9 C 18,1 km/h
31.05.2009 17:00 15,6 C 62 % 1018,4 hPa 0,0 l/m 6,5 km/h W 8,4 C 15,3 C 17,7 km/h
31.05.2009 18:00 14,9 C 65 % 1018,0 hPa 0,0 l/m 4,4 km/h N-NO 8,4 C 14,9 C 12,5 km/h
31.05.2009 19:00 14,6 C 67 % 1017,7 hPa 0,0 l/m 5,2 km/h N-NW 8,4 C 14,5 C 14,1 km/h
31.05.2009 20:00 13,8 C 71 % 1017,4 hPa 0,0 l/m 5,1 km/h SW 8,6 C 13,7 C 12,9 km/h
31.05.2009 21:00 13,5 C 74 % 1017,1 hPa 0,0 l/m 3,6 km/h W-SW 8,9 C 13,5 C 14,5 km/h
31.05.2009 22:00 13,8 C 72 % 1017,0 hPa 0,0 l/m 3,0 km/h SW 8,9 C 13,8 C 15,3 km/h
31.05.2009 23:00 13,5 C 76 % 1016,8 hPa 0,0 l/m 2,5 km/h SO 9,4 C 13,5 C 11,3 km/h
Min-Datum _ 31.05.09 25.05.09 26.05.09 - 25.05.09 - 29.05.09 31.05.09 25.05.09
_ Min-Zeit 05:30 13:45 21:00 - 00:15 - 10:00 05:30 00:15
Minimum _ 6,4 C 45 % 1008,5 hPa - 0,0 km/h - 3,6 C 6,4 C 0,0 km/h
Max-Datum _ 26.05.09 30.05.09 27.05.09 29.05.09 27.05.09 - 26.05.09 26.05.09 27.05.09
_ Max-Zeit 16:15 09:15 23:00 01:30 12:15 - 15:45 15:30 00:30
Maximum _ 29,7 C 92 % 1025,1 hPa 6,3 l/m 14,7 km/h
N-NW
- 16,9 C 29,2 C 41,8 km/h
W-SW
Durchschnitt _ 15,4 C 70 % 1019,6 hPa #47,3 l/m 3,4 km/h NW 9,5 C 15,2 C 11,5 km/h